sensor_id;sensor_type;location;lat;lon;timestamp;temperature;humidity
68098;DHT22;54886;47.036;15.466;2023-04-24T00:00:21;12.49;77.00
68098;DHT22;54886;47.036;15.466;2023-04-24T00:02:47;12.42;77.66
68098;DHT22;54886;47.036;15.466;2023-04-24T00:05:14;12.38;78.70
68098;DHT22;54886;47.036;15.466;2023-04-24T00:07:40;12.42;78.52
68098;DHT22;54886;47.036;15.466;2023-04-24T00:10:06;12.31;79.15
68098;DHT22;54886;47.036;15.466;2023-04-24T00:12:32;12.24;78.92
68098;DHT22;54886;47.036;15.466;2023-04-24T00:14:58;12.27;78.90
68098;DHT22;54886;47.036;15.466;2023-04-24T00:17:23;12.25;77.85
68098;DHT22;54886;47.036;15.466;2023-04-24T00:19:49;12.10;79.70
68098;DHT22;54886;47.036;15.466;2023-04-24T00:22:16;12.10;79.14
68098;DHT22;54886;47.036;15.466;2023-04-24T00:24:42;12.03;79.32
68098;DHT22;54886;47.036;15.466;2023-04-24T00:27:07;11.97;79.25
68098;DHT22;54886;47.036;15.466;2023-04-24T00:29:33;12.06;77.03
68098;DHT22;54886;47.036;15.466;2023-04-24T00:31:58;12.06;78.48
68098;DHT22;54886;47.036;15.466;2023-04-24T00:34:24;11.97;78.57
68098;DHT22;54886;47.036;15.466;2023-04-24T00:36:49;12.00;77.79
68098;DHT22;54886;47.036;15.466;2023-04-24T00:39:20;11.97;76.69
68098;DHT22;54886;47.036;15.466;2023-04-24T00:41:46;11.98;77.73
68098;DHT22;54886;47.036;15.466;2023-04-24T00:44:12;11.93;77.79
68098;DHT22;54886;47.036;15.466;2023-04-24T00:46:38;11.94;77.32
68098;DHT22;54886;47.036;15.466;2023-04-24T00:49:04;11.96;76.96
68098;DHT22;54886;47.036;15.466;2023-04-24T00:51:30;11.96;75.97
68098;DHT22;54886;47.036;15.466;2023-04-24T00:53:58;11.93;75.90
68098;DHT22;54886;47.036;15.466;2023-04-24T00:56:23;11.93;76.75
68098;DHT22;54886;47.036;15.466;2023-04-24T00:58:49;11.87;77.77
68098;DHT22;54886;47.036;15.466;2023-04-24T01:01:15;11.85;77.67
68098;DHT22;54886;47.036;15.466;2023-04-24T01:03:41;11.79;78.90
68098;DHT22;54886;47.036;15.466;2023-04-24T01:06:07;11.77;77.02
68098;DHT22;54886;47.036;15.466;2023-04-24T01:08:33;11.76;78.70
68098;DHT22;54886;47.036;15.466;2023-04-24T01:11:03;11.70;79.56
68098;DHT22;54886;47.036;15.466;2023-04-24T01:13:29;11.73;79.87
68098;DHT22;54886;47.036;15.466;2023-04-24T01:15:54;11.73;79.88
68098;DHT22;54886;47.036;15.466;2023-04-24T01:18:20;11.76;80.40
68098;DHT22;54886;47.036;15.466;2023-04-24T01:20:47;11.70;79.81
68098;DHT22;54886;47.036;15.466;2023-04-24T01:23:14;11.72;80.02
68098;DHT22;54886;47.036;15.466;2023-04-24T01:25:40;11.73;79.90
68098;DHT22;54886;47.036;15.466;2023-04-24T01:28:05;11.75;79.97
68098;DHT22;54886;47.036;15.466;2023-04-24T01:30:31;11.69;79.84
68098;DHT22;54886;47.036;15.466;2023-04-24T01:32:58;11.70;79.21
68098;DHT22;54886;47.036;15.466;2023-04-24T01:35:24;11.72;79.48
68098;DHT22;54886;47.036;15.466;2023-04-24T01:37:50;11.66;78.78
68098;DHT22;54886;47.036;15.466;2023-04-24T01:40:15;11.62;79.46
68098;DHT22;54886;47.036;15.466;2023-04-24T01:42:41;11.59;78.80
68098;DHT22;54886;47.036;15.466;2023-04-24T01:45:09;11.58;80.27
68098;DHT22;54886;47.036;15.466;2023-04-24T01:47:35;11.54;80.24
68098;DHT22;54886;47.036;15.466;2023-04-24T01:50:01;11.55;78.74
68098;DHT22;54886;47.036;15.466;2023-04-24T01:52:26;11.51;79.58
68098;DHT22;54886;47.036;15.466;2023-04-24T01:54:54;11.48;78.50
68098;DHT22;54886;47.036;15.466;2023-04-24T01:57:20;11.45;78.23
68098;DHT22;54886;47.036;15.466;2023-04-24T01:59:46;11.46;78.98
68098;DHT22;54886;47.036;15.466;2023-04-24T02:02:11;11.42;79.48
68098;DHT22;54886;47.036;15.466;2023-04-24T02:04:37;11.49;76.97
68098;DHT22;54886;47.036;15.466;2023-04-24T02:07:02;11.45;77.13
68098;DHT22;54886;47.036;15.466;2023-04-24T02:09:27;11.45;77.85
68098;DHT22;54886;47.036;15.466;2023-04-24T02:11:53;11.41;79.29
68098;DHT22;54886;47.036;15.466;2023-04-24T02:14:18;11.43;77.40
68098;DHT22;54886;47.036;15.466;2023-04-24T02:16:43;11.42;78.11
68098;DHT22;54886;47.036;15.466;2023-04-24T02:19:09;11.43;79.25
68098;DHT22;54886;47.036;15.466;2023-04-24T02:21:35;11.43;78.66
68098;DHT22;54886;47.036;15.466;2023-04-24T02:24:01;11.42;79.47
68098;DHT22;54886;47.036;15.466;2023-04-24T02:26:26;11.41;78.50
68098;DHT22;54886;47.036;15.466;2023-04-24T02:28:52;11.41;80.30
68098;DHT22;54886;47.036;15.466;2023-04-24T02:31:17;11.41;79.97
68098;DHT22;54886;47.036;15.466;2023-04-24T02:33:42;11.43;80.06
68098;DHT22;54886;47.036;15.466;2023-04-24T02:36:08;11.39;80.70
68098;DHT22;54886;47.036;15.466;2023-04-24T02:38:33;11.36;80.26
68098;DHT22;54886;47.036;15.466;2023-04-24T02:40:58;11.32;80.89
68098;DHT22;54886;47.036;15.466;2023-04-24T02:43:25;11.31;79.99
68098;DHT22;54886;47.036;15.466;2023-04-24T02:45:51;11.30;80.04
68098;DHT22;54886;47.036;15.466;2023-04-24T02:48:16;11.30;80.39
68098;DHT22;54886;47.036;15.466;2023-04-24T02:50:42;11.27;80.37
68098;DHT22;54886;47.036;15.466;2023-04-24T02:53:07;11.25;80.54
68098;DHT22;54886;47.036;15.466;2023-04-24T02:55:32;11.24;80.97
68098;DHT22;54886;47.036;15.466;2023-04-24T02:57:58;11.25;80.78
68098;DHT22;54886;47.036;15.466;2023-04-24T03:00:23;11.32;80.64
68098;DHT22;54886;47.036;15.466;2023-04-24T03:02:49;11.30;81.06
68098;DHT22;54886;47.036;15.466;2023-04-24T03:05:15;11.23;81.11
68098;DHT22;54886;47.036;15.466;2023-04-24T03:07:40;11.20;79.48
68098;DHT22;54886;47.036;15.466;2023-04-24T03:10:06;11.15;80.38
68098;DHT22;54886;47.036;15.466;2023-04-24T03:12:32;11.17;78.90
68098;DHT22;54886;47.036;15.466;2023-04-24T03:14:57;11.18;78.22
68098;DHT22;54886;47.036;15.466;2023-04-24T03:17:22;11.20;78.13
68098;DHT22;54886;47.036;15.466;2023-04-24T03:19:48;11.17;77.64
68098;DHT22;54886;47.036;15.466;2023-04-24T03:22:13;11.15;79.36
68098;DHT22;54886;47.036;15.466;2023-04-24T03:24:39;11.11;77.76
68098;DHT22;54886;47.036;15.466;2023-04-24T03:27:04;11.08;78.77
68098;DHT22;54886;47.036;15.466;2023-04-24T03:29:29;11.00;80.15
68098;DHT22;54886;47.036;15.466;2023-04-24T03:31:55;11.03;77.82
68098;DHT22;54886;47.036;15.466;2023-04-24T03:34:20;11.04;78.00
68098;DHT22;54886;47.036;15.466;2023-04-24T03:36:45;11.03;77.42
68098;DHT22;54886;47.036;15.466;2023-04-24T03:39:13;11.03;77.52
68098;DHT22;54886;47.036;15.466;2023-04-24T03:41:38;10.97;79.30
68098;DHT22;54886;47.036;15.466;2023-04-24T03:44:03;11.01;77.85
68098;DHT22;54886;47.036;15.466;2023-04-24T03:46:29;11.00;79.33
68098;DHT22;54886;47.036;15.466;2023-04-24T03:48:54;10.97;78.69
68098;DHT22;54886;47.036;15.466;2023-04-24T03:51:20;10.94;78.63
68098;DHT22;54886;47.036;15.466;2023-04-24T03:53:45;10.92;79.15
68098;DHT22;54886;47.036;15.466;2023-04-24T03:56:11;10.90;79.28
68098;DHT22;54886;47.036;15.466;2023-04-24T03:58:36;10.94;78.29
68098;DHT22;54886;47.036;15.466;2023-04-24T04:01:01;10.96;78.72
68098;DHT22;54886;47.036;15.466;2023-04-24T04:03:28;10.96;78.07
68098;DHT22;54886;47.036;15.466;2023-04-24T04:05:53;10.96;78.38
68098;DHT22;54886;47.036;15.466;2023-04-24T04:08:19;10.90;81.42
68098;DHT22;54886;47.036;15.466;2023-04-24T04:10:44;10.93;80.38
68098;DHT22;54886;47.036;15.466;2023-04-24T04:13:10;10.93;78.45
68098;DHT22;54886;47.036;15.466;2023-04-24T04:15:35;10.81;82.16
68098;DHT22;54886;47.036;15.466;2023-04-24T04:18:01;10.60;83.54
68098;DHT22;54886;47.036;15.466;2023-04-24T04:20:26;10.69;81.64
68098;DHT22;54886;47.036;15.466;2023-04-24T04:22:51;10.76;81.32
68098;DHT22;54886;47.036;15.466;2023-04-24T04:25:17;10.79;79.40
68098;DHT22;54886;47.036;15.466;2023-04-24T04:27:45;10.81;81.29
68098;DHT22;54886;47.036;15.466;2023-04-24T04:30:13;10.77;82.05
68098;DHT22;54886;47.036;15.466;2023-04-24T04:32:38;10.65;82.66
68098;DHT22;54886;47.036;15.466;2023-04-24T04:35:04;10.70;81.97
68098;DHT22;54886;47.036;15.466;2023-04-24T04:37:31;10.69;80.60
68098;DHT22;54886;47.036;15.466;2023-04-24T04:39:57;10.75;80.02
68098;DHT22;54886;47.036;15.466;2023-04-24T04:42:24;10.75;81.44
68098;DHT22;54886;47.036;15.466;2023-04-24T04:44:50;10.79;79.54
68098;DHT22;54886;47.036;15.466;2023-04-24T04:47:16;10.79;81.99
68098;DHT22;54886;47.036;15.466;2023-04-24T04:49:42;10.81;79.68
68098;DHT22;54886;47.036;15.466;2023-04-24T04:52:08;10.86;77.58
68098;DHT22;54886;47.036;15.466;2023-04-24T04:54:34;10.83;80.94
68098;DHT22;54886;47.036;15.466;2023-04-24T04:56:59;10.75;82.76
68098;DHT22;54886;47.036;15.466;2023-04-24T04:59:26;10.76;80.93
68098;DHT22;54886;47.036;15.466;2023-04-24T05:01:51;10.80;81.95
68098;DHT22;54886;47.036;15.466;2023-04-24T05:04:17;10.80;81.36
68098;DHT22;54886;47.036;15.466;2023-04-24T05:06:42;10.77;82.56
68098;DHT22;54886;47.036;15.466;2023-04-24T05:09:07;10.90;82.15
68098;DHT22;54886;47.036;15.466;2023-04-24T05:11:33;10.94;82.23
68098;DHT22;54886;47.036;15.466;2023-04-24T05:13:58;10.94;82.27
68098;DHT22;54886;47.036;15.466;2023-04-24T05:16:24;10.90;82.94
68098;DHT22;54886;47.036;15.466;2023-04-24T05:18:49;10.90;82.88
68098;DHT22;54886;47.036;15.466;2023-04-24T05:21:15;10.89;82.52
68098;DHT22;54886;47.036;15.466;2023-04-24T05:23:40;10.90;82.16
68098;DHT22;54886;47.036;15.466;2023-04-24T05:26:05;10.92;82.52
68098;DHT22;54886;47.036;15.466;2023-04-24T05:28:31;10.93;82.98
68098;DHT22;54886;47.036;15.466;2023-04-24T05:30:56;10.96;83.32
68098;DHT22;54886;47.036;15.466;2023-04-24T05:33:22;11.00;83.09
68098;DHT22;54886;47.036;15.466;2023-04-24T05:35:48;11.01;82.42
68098;DHT22;54886;47.036;15.466;2023-04-24T05:38:14;11.03;83.02
68098;DHT22;54886;47.036;15.466;2023-04-24T05:40:39;11.07;82.62
68098;DHT22;54886;47.036;15.466;2023-04-24T05:43:05;11.10;83.36
68098;DHT22;54886;47.036;15.466;2023-04-24T05:45:30;11.10;82.95
68098;DHT22;54886;47.036;15.466;2023-04-24T05:47:55;11.13;83.61
68098;DHT22;54886;47.036;15.466;2023-04-24T05:50:21;11.14;81.01
68098;DHT22;54886;47.036;15.466;2023-04-24T05:52:46;11.17;83.99
68098;DHT22;54886;47.036;15.466;2023-04-24T05:55:12;11.18;81.07
68098;DHT22;54886;47.036;15.466;2023-04-24T05:57:37;11.24;82.60
68098;DHT22;54886;47.036;15.466;2023-04-24T06:00:03;11.25;83.83
68098;DHT22;54886;47.036;15.466;2023-04-24T06:02:29;11.28;84.70
68098;DHT22;54886;47.036;15.466;2023-04-24T06:05:00;11.32;81.69
68098;DHT22;54886;47.036;15.466;2023-04-24T06:07:26;11.35;84.19
68098;DHT22;54886;47.036;15.466;2023-04-24T06:09:51;11.41;85.83
68098;DHT22;54886;47.036;15.466;2023-04-24T06:12:17;11.43;85.91
68098;DHT22;54886;47.036;15.466;2023-04-24T06:14:42;11.49;85.75
68098;DHT22;54886;47.036;15.466;2023-04-24T06:17:08;11.57;85.55
68098;DHT22;54886;47.036;15.466;2023-04-24T06:19:33;11.62;84.00
68098;DHT22;54886;47.036;15.466;2023-04-24T06:21:59;11.63;84.23
68098;DHT22;54886;47.036;15.466;2023-04-24T06:24:28;11.65;83.45
68098;DHT22;54886;47.036;15.466;2023-04-24T06:26:53;11.69;83.93
68098;DHT22;54886;47.036;15.466;2023-04-24T06:29:19;11.76;85.62
68098;DHT22;54886;47.036;15.466;2023-04-24T06:31:45;11.85;84.78
68098;DHT22;54886;47.036;15.466;2023-04-24T06:34:10;11.89;83.85
68098;DHT22;54886;47.036;15.466;2023-04-24T06:36:35;11.93;82.98
68098;DHT22;54886;47.036;15.466;2023-04-24T06:39:01;11.96;82.26
68098;DHT22;54886;47.036;15.466;2023-04-24T06:41:28;12.01;83.08
68098;DHT22;54886;47.036;15.466;2023-04-24T06:43:53;12.07;83.22
68098;DHT22;54886;47.036;15.466;2023-04-24T06:46:19;12.14;84.05
68098;DHT22;54886;47.036;15.466;2023-04-24T06:48:47;12.16;82.71
68098;DHT22;54886;47.036;15.466;2023-04-24T06:51:12;12.18;80.69
68098;DHT22;54886;47.036;15.466;2023-04-24T06:53:38;12.20;82.41
68098;DHT22;54886;47.036;15.466;2023-04-24T06:56:03;12.23;82.64
68098;DHT22;54886;47.036;15.466;2023-04-24T06:58:30;12.27;82.26
68098;DHT22;54886;47.036;15.466;2023-04-24T07:00:55;12.30;82.72
68098;DHT22;54886;47.036;15.466;2023-04-24T07:03:21;12.32;83.28
68098;DHT22;54886;47.036;15.466;2023-04-24T07:05:46;12.34;83.79
68098;DHT22;54886;47.036;15.466;2023-04-24T07:08:12;12.37;84.64
68098;DHT22;54886;47.036;15.466;2023-04-24T07:10:38;12.40;84.72
68098;DHT22;54886;47.036;15.466;2023-04-24T07:13:04;12.41;84.50
68098;DHT22;54886;47.036;15.466;2023-04-24T07:15:29;12.41;83.89
68098;DHT22;54886;47.036;15.466;2023-04-24T07:17:55;12.41;83.98
68098;DHT22;54886;47.036;15.466;2023-04-24T07:20:21;12.42;81.98
68098;DHT22;54886;47.036;15.466;2023-04-24T07:22:46;12.40;79.14
68098;DHT22;54886;47.036;15.466;2023-04-24T07:25:13;12.42;82.26
68098;DHT22;54886;47.036;15.466;2023-04-24T07:27:38;12.38;78.34
68098;DHT22;54886;47.036;15.466;2023-04-24T07:30:04;12.42;81.12
68098;DHT22;54886;47.036;15.466;2023-04-24T07:32:30;12.40;78.74
68098;DHT22;54886;47.036;15.466;2023-04-24T07:34:55;12.40;80.48
68098;DHT22;54886;47.036;15.466;2023-04-24T07:37:21;12.40;79.71
68098;DHT22;54886;47.036;15.466;2023-04-24T07:39:46;12.42;81.76
68098;DHT22;54886;47.036;15.466;2023-04-24T07:42:12;12.45;83.00
68098;DHT22;54886;47.036;15.466;2023-04-24T07:44:37;12.46;82.62
68098;DHT22;54886;47.036;15.466;2023-04-24T07:47:03;12.49;83.32
68098;DHT22;54886;47.036;15.466;2023-04-24T07:49:28;12.49;82.23
68098;DHT22;54886;47.036;15.466;2023-04-24T07:51:53;12.49;82.92
68098;DHT22;54886;47.036;15.466;2023-04-24T07:54:19;12.49;85.07
68098;DHT22;54886;47.036;15.466;2023-04-24T07:56:44;12.49;84.09
68098;DHT22;54886;47.036;15.466;2023-04-24T07:59:10;12.51;83.74
68098;DHT22;54886;47.036;15.466;2023-04-24T08:01:36;12.53;83.24
68098;DHT22;54886;47.036;15.466;2023-04-24T08:04:02;12.55;83.94
68098;DHT22;54886;47.036;15.466;2023-04-24T08:06:28;12.53;84.54
68098;DHT22;54886;47.036;15.466;2023-04-24T08:08:56;12.58;83.21
68098;DHT22;54886;47.036;15.466;2023-04-24T08:11:21;12.56;85.54
68098;DHT22;54886;47.036;15.466;2023-04-24T08:13:47;12.52;83.00
68098;DHT22;54886;47.036;15.466;2023-04-24T08:16:12;12.56;81.28
68098;DHT22;54886;47.036;15.466;2023-04-24T08:18:38;12.53;83.76
68098;DHT22;54886;47.036;15.466;2023-04-24T08:21:03;12.56;82.97
68098;DHT22;54886;47.036;15.466;2023-04-24T08:23:29;12.56;84.72
68098;DHT22;54886;47.036;15.466;2023-04-24T08:25:55;12.53;84.83
68098;DHT22;54886;47.036;15.466;2023-04-24T08:28:20;12.56;83.09
68098;DHT22;54886;47.036;15.466;2023-04-24T08:30:46;12.53;84.86
68098;DHT22;54886;47.036;15.466;2023-04-24T08:33:14;12.56;85.22
68098;DHT22;54886;47.036;15.466;2023-04-24T08:35:39;12.51;85.84
68098;DHT22;54886;47.036;15.466;2023-04-24T08:38:05;12.55;82.93
68098;DHT22;54886;47.036;15.466;2023-04-24T08:40:33;12.56;83.10
68098;DHT22;54886;47.036;15.466;2023-04-24T08:42:59;12.56;84.62
68098;DHT22;54886;47.036;15.466;2023-04-24T08:45:25;12.59;82.16
68098;DHT22;54886;47.036;15.466;2023-04-24T08:47:52;12.59;84.42
68098;DHT22;54886;47.036;15.466;2023-04-24T08:50:20;12.56;85.40
68098;DHT22;54886;47.036;15.466;2023-04-24T08:52:47;12.59;84.93
68098;DHT22;54886;47.036;15.466;2023-04-24T08:55:14;12.58;84.94
68098;DHT22;54886;47.036;15.466;2023-04-24T08:57:42;12.59;84.67
68098;DHT22;54886;47.036;15.466;2023-04-24T09:00:10;12.62;82.62
68098;DHT22;54886;47.036;15.466;2023-04-24T09:02:36;12.62;83.28
68098;DHT22;54886;47.036;15.466;2023-04-24T09:05:02;12.63;84.44
68098;DHT22;54886;47.036;15.466;2023-04-24T09:07:30;12.60;85.09
68098;DHT22;54886;47.036;15.466;2023-04-24T09:09:59;12.58;85.42
68098;DHT22;54886;47.036;15.466;2023-04-24T09:12:24;12.56;85.47
68098;DHT22;54886;47.036;15.466;2023-04-24T09:14:50;12.55;85.06
68098;DHT22;54886;47.036;15.466;2023-04-24T09:17:16;12.53;85.36
68098;DHT22;54886;47.036;15.466;2023-04-24T09:19:41;12.56;85.23
68098;DHT22;54886;47.036;15.466;2023-04-24T09:22:10;12.59;84.89
68098;DHT22;54886;47.036;15.466;2023-04-24T09:24:36;12.55;85.86
68098;DHT22;54886;47.036;15.466;2023-04-24T09:27:02;12.60;85.86
68098;DHT22;54886;47.036;15.466;2023-04-24T09:29:28;12.60;86.30
68098;DHT22;54886;47.036;15.466;2023-04-24T09:31:53;12.56;86.38
68098;DHT22;54886;47.036;15.466;2023-04-24T09:34:23;12.65;85.08
68098;DHT22;54886;47.036;15.466;2023-04-24T09:36:49;12.69;84.04
68098;DHT22;54886;47.036;15.466;2023-04-24T09:39:15;12.70;84.21
68098;DHT22;54886;47.036;15.466;2023-04-24T09:41:46;12.70;83.71
68098;DHT22;54886;47.036;15.466;2023-04-24T09:44:12;12.72;83.84
68098;DHT22;54886;47.036;15.466;2023-04-24T09:46:38;12.75;82.52
68098;DHT22;54886;47.036;15.466;2023-04-24T09:49:13;12.76;82.95
68098;DHT22;54886;47.036;15.466;2023-04-24T09:51:38;12.76;81.86
68098;DHT22;54886;47.036;15.466;2023-04-24T09:54:13;12.79;81.49
68098;DHT22;54886;47.036;15.466;2023-04-24T09:56:42;12.78;81.49
68098;DHT22;54886;47.036;15.466;2023-04-24T09:59:08;12.80;81.71
68098;DHT22;54886;47.036;15.466;2023-04-24T10:01:34;12.80;81.42
68098;DHT22;54886;47.036;15.466;2023-04-24T10:03:59;12.83;82.98
68098;DHT22;54886;47.036;15.466;2023-04-24T10:06:33;12.86;82.48
68098;DHT22;54886;47.036;15.466;2023-04-24T10:08:59;12.90;81.92
68098;DHT22;54886;47.036;15.466;2023-04-24T10:11:26;12.99;80.83
68098;DHT22;54886;47.036;15.466;2023-04-24T10:13:52;12.97;80.78
68098;DHT22;54886;47.036;15.466;2023-04-24T10:16:19;13.03;81.42
68098;DHT22;54886;47.036;15.466;2023-04-24T10:18:46;13.02;82.01
68098;DHT22;54886;47.036;15.466;2023-04-24T10:21:13;13.10;81.46
68098;DHT22;54886;47.036;15.466;2023-04-24T10:23:39;13.11;81.57
68098;DHT22;54886;47.036;15.466;2023-04-24T10:26:05;13.17;79.82
68098;DHT22;54886;47.036;15.466;2023-04-24T10:28:31;13.18;80.08
68098;DHT22;54886;47.036;15.466;2023-04-24T10:30:58;13.24;80.86
68098;DHT22;54886;47.036;15.466;2023-04-24T10:33:23;13.24;80.69
68098;DHT22;54886;47.036;15.466;2023-04-24T10:35:50;13.30;79.76
68098;DHT22;54886;47.036;15.466;2023-04-24T10:38:21;13.30;79.91
68098;DHT22;54886;47.036;15.466;2023-04-24T10:40:49;13.30;79.93
68098;DHT22;54886;47.036;15.466;2023-04-24T10:43:16;13.35;78.90
68098;DHT22;54886;47.036;15.466;2023-04-24T10:46:02;13.35;78.92
68098;DHT22;54886;47.036;15.466;2023-04-24T10:48:28;13.37;80.34
68098;DHT22;54886;47.036;15.466;2023-04-24T10:50:54;13.41;81.21
68098;DHT22;54886;47.036;15.466;2023-04-24T10:53:22;13.47;81.39
68098;DHT22;54886;47.036;15.466;2023-04-24T10:56:08;13.55;81.26
68098;DHT22;54886;47.036;15.466;2023-04-24T10:58:49;13.58;78.97
68098;DHT22;54886;47.036;15.466;2023-04-24T11:01:32;13.63;79.96
68098;DHT22;54886;47.036;15.466;2023-04-24T11:04:02;13.66;79.79
68098;DHT22;54886;47.036;15.466;2023-04-24T11:06:33;13.70;79.37
68098;DHT22;54886;47.036;15.466;2023-04-24T11:09:10;13.73;78.39
68098;DHT22;54886;47.036;15.466;2023-04-24T11:11:38;13.76;78.03
68098;DHT22;54886;47.036;15.466;2023-04-24T11:14:06;13.79;79.68
68098;DHT22;54886;47.036;15.466;2023-04-24T11:16:43;13.83;77.68
68098;DHT22;54886;47.036;15.466;2023-04-24T11:21:50;13.87;78.59
68098;DHT22;54886;47.036;15.466;2023-04-24T11:35:15;13.97;78.90
68098;DHT22;54886;47.036;15.466;2023-04-24T11:37:46;14.00;76.80
68098;DHT22;54886;47.036;15.466;2023-04-24T11:40:13;14.02;76.83
68098;DHT22;54886;47.036;15.466;2023-04-24T11:42:45;14.03;75.11
68098;DHT22;54886;47.036;15.466;2023-04-24T11:45:22;14.04;75.70
68098;DHT22;54886;47.036;15.466;2023-04-24T11:47:47;14.09;76.08
68098;DHT22;54886;47.036;15.466;2023-04-24T11:50:15;14.07;76.08
68098;DHT22;54886;47.036;15.466;2023-04-24T11:52:41;14.09;75.50
68098;DHT22;54886;47.036;15.466;2023-04-24T11:57:39;14.09;75.13
68098;DHT22;54886;47.036;15.466;2023-04-24T12:00:15;14.07;76.14
68098;DHT22;54886;47.036;15.466;2023-04-24T12:02:41;14.09;76.93
68098;DHT22;54886;47.036;15.466;2023-04-24T12:05:06;14.12;75.72
68098;DHT22;54886;47.036;15.466;2023-04-24T12:07:40;14.07;75.50
68098;DHT22;54886;47.036;15.466;2023-04-24T12:10:08;14.10;75.07
68098;DHT22;54886;47.036;15.466;2023-04-24T12:12:34;14.06;74.69
68098;DHT22;54886;47.036;15.466;2023-04-24T12:15:01;14.07;75.77
68098;DHT22;54886;47.036;15.466;2023-04-24T12:17:33;14.07;76.23
68098;DHT22;54886;47.036;15.466;2023-04-24T12:22:43;14.07;75.73
68098;DHT22;54886;47.036;15.466;2023-04-24T12:25:12;14.14;75.69
68098;DHT22;54886;47.036;15.466;2023-04-24T12:27:38;14.16;76.96
68098;DHT22;54886;47.036;15.466;2023-04-24T12:30:05;14.17;77.37
68098;DHT22;54886;47.036;15.466;2023-04-24T12:32:31;14.23;77.21
68098;DHT22;54886;47.036;15.466;2023-04-24T12:34:57;14.28;76.69
68098;DHT22;54886;47.036;15.466;2023-04-24T12:37:31;14.34;75.03
68098;DHT22;54886;47.036;15.466;2023-04-24T12:40:05;14.38;74.85
68098;DHT22;54886;47.036;15.466;2023-04-24T12:42:34;14.37;74.35
68098;DHT22;54886;47.036;15.466;2023-04-24T12:45:05;14.44;73.62
68098;DHT22;54886;47.036;15.466;2023-04-24T12:47:32;14.44;73.58
68098;DHT22;54886;47.036;15.466;2023-04-24T12:49:57;14.51;73.39
68098;DHT22;54886;47.036;15.466;2023-04-24T12:52:24;14.55;73.79
68098;DHT22;54886;47.036;15.466;2023-04-24T12:54:51;14.62;72.07
68098;DHT22;54886;47.036;15.466;2023-04-24T12:57:18;14.67;72.43
68098;DHT22;54886;47.036;15.466;2023-04-24T12:59:43;14.69;72.13
68098;DHT22;54886;47.036;15.466;2023-04-24T13:02:09;14.71;73.20
68098;DHT22;54886;47.036;15.466;2023-04-24T13:04:35;14.73;71.76
68098;DHT22;54886;47.036;15.466;2023-04-24T13:07:00;14.78;70.45
68098;DHT22;54886;47.036;15.466;2023-04-24T13:09:26;14.82;70.57
68098;DHT22;54886;47.036;15.466;2023-04-24T13:11:51;14.82;71.54
68098;DHT22;54886;47.036;15.466;2023-04-24T13:14:16;14.82;73.33
68098;DHT22;54886;47.036;15.466;2023-04-24T13:16:42;14.83;73.09
68098;DHT22;54886;47.036;15.466;2023-04-24T13:19:07;14.85;72.98
68098;DHT22;54886;47.036;15.466;2023-04-24T13:21:32;14.83;70.86
68098;DHT22;54886;47.036;15.466;2023-04-24T13:23:58;14.82;70.80
68098;DHT22;54886;47.036;15.466;2023-04-24T13:26:24;14.82;70.73
68098;DHT22;54886;47.036;15.466;2023-04-24T13:28:49;14.85;71.37
68098;DHT22;54886;47.036;15.466;2023-04-24T13:31:14;14.80;71.06
68098;DHT22;54886;47.036;15.466;2023-04-24T13:33:40;14.82;71.78
68098;DHT22;54886;47.036;15.466;2023-04-24T13:36:05;14.87;71.89
68098;DHT22;54886;47.036;15.466;2023-04-24T13:38:31;14.86;72.45
68098;DHT22;54886;47.036;15.466;2023-04-24T13:40:56;14.85;72.15
68098;DHT22;54886;47.036;15.466;2023-04-24T13:43:22;14.86;71.42
68098;DHT22;54886;47.036;15.466;2023-04-24T13:45:47;14.85;71.06
68098;DHT22;54886;47.036;15.466;2023-04-24T13:48:12;14.86;71.60
68098;DHT22;54886;47.036;15.466;2023-04-24T13:50:41;14.86;72.76
68098;DHT22;54886;47.036;15.466;2023-04-24T13:53:06;14.90;73.41
68098;DHT22;54886;47.036;15.466;2023-04-24T13:55:32;14.89;71.90
68098;DHT22;54886;47.036;15.466;2023-04-24T13:57:57;14.87;72.19
68098;DHT22;54886;47.036;15.466;2023-04-24T14:00:23;14.86;71.89
68098;DHT22;54886;47.036;15.466;2023-04-24T14:02:48;14.86;72.71
68098;DHT22;54886;47.036;15.466;2023-04-24T14:05:14;14.86;72.79
68098;DHT22;54886;47.036;15.466;2023-04-24T14:07:40;14.85;72.86
68098;DHT22;54886;47.036;15.466;2023-04-24T14:10:06;14.85;72.74
68098;DHT22;54886;47.036;15.466;2023-04-24T14:12:32;14.83;71.37
68098;DHT22;54886;47.036;15.466;2023-04-24T14:14:57;14.82;71.57
68098;DHT22;54886;47.036;15.466;2023-04-24T14:17:23;14.83;71.87
68098;DHT22;54886;47.036;15.466;2023-04-24T14:19:48;14.80;72.07
68098;DHT22;54886;47.036;15.466;2023-04-24T14:22:13;14.82;72.36
68098;DHT22;54886;47.036;15.466;2023-04-24T14:24:39;14.80;72.50
68098;DHT22;54886;47.036;15.466;2023-04-24T14:27:04;14.82;72.20
68098;DHT22;54886;47.036;15.466;2023-04-24T14:29:29;14.79;72.88
68098;DHT22;54886;47.036;15.466;2023-04-24T14:31:55;14.82;72.86
68098;DHT22;54886;47.036;15.466;2023-04-24T14:34:20;14.80;72.87
68098;DHT22;54886;47.036;15.466;2023-04-24T14:36:46;14.78;74.06
68098;DHT22;54886;47.036;15.466;2023-04-24T14:39:11;14.76;74.34
68098;DHT22;54886;47.036;15.466;2023-04-24T14:41:37;14.78;74.59
68098;DHT22;54886;47.036;15.466;2023-04-24T14:44:04;14.72;74.52
68098;DHT22;54886;47.036;15.466;2023-04-24T14:46:30;14.76;75.11
68098;DHT22;54886;47.036;15.466;2023-04-24T14:48:56;14.76;75.61
68098;DHT22;54886;47.036;15.466;2023-04-24T14:51:22;14.79;74.84
68098;DHT22;54886;47.036;15.466;2023-04-24T14:53:47;14.75;75.02
68098;DHT22;54886;47.036;15.466;2023-04-24T14:56:13;14.76;74.33
68098;DHT22;54886;47.036;15.466;2023-04-24T14:58:39;14.69;74.54
68098;DHT22;54886;47.036;15.466;2023-04-24T15:01:04;14.67;73.80
68098;DHT22;54886;47.036;15.466;2023-04-24T15:03:30;14.71;73.77
68098;DHT22;54886;47.036;15.466;2023-04-24T15:05:55;14.65;73.78
68098;DHT22;54886;47.036;15.466;2023-04-24T15:08:21;14.61;73.44
68098;DHT22;54886;47.036;15.466;2023-04-24T15:10:47;14.55;73.55
68098;DHT22;54886;47.036;15.466;2023-04-24T15:13:12;14.57;73.84
68098;DHT22;54886;47.036;15.466;2023-04-24T15:15:38;14.52;74.44
68098;DHT22;54886;47.036;15.466;2023-04-24T15:18:04;14.52;74.28
68098;DHT22;54886;47.036;15.466;2023-04-24T15:20:30;14.54;74.14
68098;DHT22;54886;47.036;15.466;2023-04-24T15:22:56;14.54;74.10
68098;DHT22;54886;47.036;15.466;2023-04-24T15:25:21;14.48;74.74
68098;DHT22;54886;47.036;15.466;2023-04-24T15:27:46;14.52;74.64